sensor_id;sensor_type;location;lat;lon;timestamp;P1;durP1;ratioP1;P2;durP2;ratioP2
62037;SDS011;47991;42.974;12.082;2023-02-15T00:02:01;16.30;;;10.20;;
62037;SDS011;47991;42.974;12.082;2023-02-15T00:04:29;14.80;;;8.30;;
62037;SDS011;47991;42.974;12.082;2023-02-15T00:07:15;15.90;;;8.40;;
62037;SDS011;47991;42.974;12.082;2023-02-15T00:09:44;14.20;;;9.10;;
62037;SDS011;47991;42.974;12.082;2023-02-15T00:12:12;19.60;;;9.60;;
62037;SDS011;47991;42.974;12.082;2023-02-15T00:14:40;14.70;;;8.70;;
62037;SDS011;47991;42.974;12.082;2023-02-15T00:17:08;16.40;;;9.20;;
62037;SDS011;47991;42.974;12.082;2023-02-15T00:19:35;16.30;;;9.50;;
62037;SDS011;47991;42.974;12.082;2023-02-15T00:22:03;16.90;;;9.40;;
62037;SDS011;47991;42.974;12.082;2023-02-15T00:24:29;20.20;;;11.20;;
62037;SDS011;47991;42.974;12.082;2023-02-15T00:26:56;17.20;;;10.40;;
62037;SDS011;47991;42.974;12.082;2023-02-15T00:29:23;16.40;;;9.60;;
62037;SDS011;47991;42.974;12.082;2023-02-15T00:31:50;17.90;;;10.80;;
62037;SDS011;47991;42.974;12.082;2023-02-15T00:34:23;20.60;;;11.40;;
62037;SDS011;47991;42.974;12.082;2023-02-15T00:36:51;17.50;;;10.90;;
62037;SDS011;47991;42.974;12.082;2023-02-15T00:39:19;17.80;;;10.90;;
62037;SDS011;47991;42.974;12.082;2023-02-15T00:41:46;18.20;;;11.00;;
62037;SDS011;47991;42.974;12.082;2023-02-15T00:44:14;18.80;;;10.90;;
62037;SDS011;47991;42.974;12.082;2023-02-15T00:46:41;19.90;;;12.00;;
62037;SDS011;47991;42.974;12.082;2023-02-15T00:49:09;18.70;;;10.90;;
62037;SDS011;47991;42.974;12.082;2023-02-15T00:51:37;19.40;;;12.20;;
62037;SDS011;47991;42.974;12.082;2023-02-15T00:54:06;19.90;;;10.70;;
62037;SDS011;47991;42.974;12.082;2023-02-15T00:56:33;17.50;;;10.40;;
62037;SDS011;47991;42.974;12.082;2023-02-15T00:59:02;15.50;;;9.80;;
62037;SDS011;47991;42.974;12.082;2023-02-15T01:01:29;16.30;;;10.60;;
62037;SDS011;47991;42.974;12.082;2023-02-15T01:03:56;17.70;;;10.20;;
62037;SDS011;47991;42.974;12.082;2023-02-15T01:06:23;16.70;;;10.50;;
62037;SDS011;47991;42.974;12.082;2023-02-15T01:08:50;17.30;;;10.20;;
62037;SDS011;47991;42.974;12.082;2023-02-15T01:11:19;15.80;;;9.40;;
62037;SDS011;47991;42.974;12.082;2023-02-15T01:13:52;19.70;;;10.20;;
62037;SDS011;47991;42.974;12.082;2023-02-15T01:16:21;18.10;;;10.80;;
62037;SDS011;47991;42.974;12.082;2023-02-15T01:18:49;19.40;;;11.80;;
62037;SDS011;47991;42.974;12.082;2023-02-15T01:21:17;16.50;;;10.10;;
62037;SDS011;47991;42.974;12.082;2023-02-15T01:23:47;17.70;;;10.10;;
62037;SDS011;47991;42.974;12.082;2023-02-15T01:26:15;20.10;;;10.70;;
62037;SDS011;47991;42.974;12.082;2023-02-15T01:28:44;17.90;;;9.90;;
62037;SDS011;47991;42.974;12.082;2023-02-15T01:31:12;19.70;;;11.20;;
62037;SDS011;47991;42.974;12.082;2023-02-15T01:33:41;18.50;;;10.90;;
62037;SDS011;47991;42.974;12.082;2023-02-15T01:36:09;18.10;;;11.10;;
62037;SDS011;47991;42.974;12.082;2023-02-15T01:38:38;17.20;;;10.50;;
62037;SDS011;47991;42.974;12.082;2023-02-15T01:41:08;17.10;;;10.50;;
62037;SDS011;47991;42.974;12.082;2023-02-15T01:43:54;17.60;;;10.30;;
62037;SDS011;47991;42.974;12.082;2023-02-15T01:46:26;18.00;;;11.20;;
62037;SDS011;47991;42.974;12.082;2023-02-15T01:49:16;19.10;;;10.80;;
62037;SDS011;47991;42.974;12.082;2023-02-15T01:51:47;18.70;;;11.00;;
62037;SDS011;47991;42.974;12.082;2023-02-15T01:54:25;18.70;;;11.50;;
62037;SDS011;47991;42.974;12.082;2023-02-15T01:56:58;20.60;;;9.80;;
62037;SDS011;47991;42.974;12.082;2023-02-15T01:59:30;17.60;;;11.00;;
62037;SDS011;47991;42.974;12.082;2023-02-15T02:02:00;16.60;;;11.10;;
62037;SDS011;47991;42.974;12.082;2023-02-15T02:04:33;18.80;;;11.00;;
62037;SDS011;47991;42.974;12.082;2023-02-15T02:07:06;17.30;;;11.00;;
62037;SDS011;47991;42.974;12.082;2023-02-15T02:09:35;20.40;;;10.70;;
62037;SDS011;47991;42.974;12.082;2023-02-15T02:12:03;19.30;;;11.60;;
62037;SDS011;47991;42.974;12.082;2023-02-15T02:14:31;17.00;;;10.30;;
62037;SDS011;47991;42.974;12.082;2023-02-15T02:34:31;21.10;;;12.70;;
62037;SDS011;47991;42.974;12.082;2023-02-15T02:37:12;22.10;;;13.60;;
62037;SDS011;47991;42.974;12.082;2023-02-15T02:42:18;22.00;;;13.90;;
62037;SDS011;47991;42.974;12.082;2023-02-15T02:48:33;19.40;;;10.80;;
62037;SDS011;47991;42.974;12.082;2023-02-15T02:50:49;18.20;;;12.00;;
62037;SDS011;47991;42.974;12.082;2023-02-15T02:53:16;23.60;;;12.60;;
62037;SDS011;47991;42.974;12.082;2023-02-15T02:55:47;17.30;;;10.60;;
62037;SDS011;47991;42.974;12.082;2023-02-15T03:03:56;23.40;;;14.50;;
62037;SDS011;47991;42.974;12.082;2023-02-15T03:06:38;25.20;;;13.70;;
62037;SDS011;47991;42.974;12.082;2023-02-15T03:09:22;18.40;;;11.60;;
62037;SDS011;47991;42.974;12.082;2023-02-15T03:12:01;19.30;;;12.30;;
62037;SDS011;47991;42.974;12.082;2023-02-15T03:14:32;22.30;;;11.60;;
62037;SDS011;47991;42.974;12.082;2023-02-15T03:29:40;20.60;;;12.20;;
62037;SDS011;47991;42.974;12.082;2023-02-15T03:32:08;25.20;;;14.70;;
62037;SDS011;47991;42.974;12.082;2023-02-15T03:34:37;20.00;;;12.50;;
62037;SDS011;47991;42.974;12.082;2023-02-15T03:43:06;20.70;;;12.70;;
62037;SDS011;47991;42.974;12.082;2023-02-15T03:45:49;24.10;;;14.60;;
62037;SDS011;47991;42.974;12.082;2023-02-15T03:48:44;23.00;;;14.30;;
62037;SDS011;47991;42.974;12.082;2023-02-15T03:54:02;25.80;;;16.50;;
62037;SDS011;47991;42.974;12.082;2023-02-15T03:57:16;28.60;;;15.30;;
62037;SDS011;47991;42.974;12.082;2023-02-15T04:00:13;23.40;;;14.30;;
62037;SDS011;47991;42.974;12.082;2023-02-15T04:03:09;24.60;;;14.40;;
62037;SDS011;47991;42.974;12.082;2023-02-15T04:05:57;26.10;;;14.80;;
62037;SDS011;47991;42.974;12.082;2023-02-15T04:08:24;24.10;;;16.00;;
62037;SDS011;47991;42.974;12.082;2023-02-15T04:11:11;21.90;;;13.20;;
62037;SDS011;47991;42.974;12.082;2023-02-15T04:13:38;21.90;;;13.70;;
62037;SDS011;47991;42.974;12.082;2023-02-15T04:16:05;20.80;;;13.50;;
62037;SDS011;47991;42.974;12.082;2023-02-15T04:18:35;21.00;;;13.50;;
62037;SDS011;47991;42.974;12.082;2023-02-15T04:21:23;22.60;;;14.10;;
62037;SDS011;47991;42.974;12.082;2023-02-15T04:24:10;23.00;;;14.50;;
62037;SDS011;47991;42.974;12.082;2023-02-15T04:26:56;21.00;;;13.80;;
62037;SDS011;47991;42.974;12.082;2023-02-15T04:29:24;22.20;;;13.90;;
62037;SDS011;47991;42.974;12.082;2023-02-15T04:31:54;23.20;;;14.50;;
62037;SDS011;47991;42.974;12.082;2023-02-15T04:34:23;22.20;;;13.70;;
62037;SDS011;47991;42.974;12.082;2023-02-15T04:36:51;22.30;;;14.20;;
62037;SDS011;47991;42.974;12.082;2023-02-15T04:39:18;22.50;;;13.60;;
62037;SDS011;47991;42.974;12.082;2023-02-15T04:41:45;25.90;;;15.30;;
62037;SDS011;47991;42.974;12.082;2023-02-15T04:44:14;22.50;;;15.00;;
62037;SDS011;47991;42.974;12.082;2023-02-15T04:46:41;21.60;;;13.70;;
62037;SDS011;47991;42.974;12.082;2023-02-15T04:49:08;22.90;;;15.80;;
62037;SDS011;47991;42.974;12.082;2023-02-15T04:51:36;24.80;;;15.30;;
62037;SDS011;47991;42.974;12.082;2023-02-15T04:54:03;23.00;;;14.10;;
62037;SDS011;47991;42.974;12.082;2023-02-15T04:56:30;23.30;;;13.80;;
62037;SDS011;47991;42.974;12.082;2023-02-15T04:58:57;22.80;;;14.50;;
62037;SDS011;47991;42.974;12.082;2023-02-15T05:01:24;20.90;;;14.10;;
62037;SDS011;47991;42.974;12.082;2023-02-15T05:03:51;21.80;;;14.00;;
62037;SDS011;47991;42.974;12.082;2023-02-15T05:06:18;21.70;;;14.50;;
62037;SDS011;47991;42.974;12.082;2023-02-15T05:08:45;24.30;;;14.90;;
62037;SDS011;47991;42.974;12.082;2023-02-15T05:11:12;22.20;;;13.70;;
62037;SDS011;47991;42.974;12.082;2023-02-15T05:13:39;21.80;;;13.60;;
62037;SDS011;47991;42.974;12.082;2023-02-15T05:16:06;23.70;;;14.50;;
62037;SDS011;47991;42.974;12.082;2023-02-15T05:18:33;26.20;;;14.90;;
62037;SDS011;47991;42.974;12.082;2023-02-15T05:21:00;23.30;;;15.10;;
62037;SDS011;47991;42.974;12.082;2023-02-15T05:23:26;23.30;;;14.20;;
62037;SDS011;47991;42.974;12.082;2023-02-15T05:25:53;20.10;;;12.50;;
62037;SDS011;47991;42.974;12.082;2023-02-15T05:28:39;20.80;;;13.30;;
62037;SDS011;47991;42.974;12.082;2023-02-15T05:31:13;19.10;;;12.50;;
62037;SDS011;47991;42.974;12.082;2023-02-15T05:33:41;22.30;;;12.80;;
62037;SDS011;47991;42.974;12.082;2023-02-15T05:36:09;21.60;;;13.10;;
62037;SDS011;47991;42.974;12.082;2023-02-15T05:38:37;19.50;;;11.90;;
62037;SDS011;47991;42.974;12.082;2023-02-15T05:41:08;24.10;;;14.10;;
62037;SDS011;47991;42.974;12.082;2023-02-15T05:43:36;20.80;;;13.20;;
62037;SDS011;47991;42.974;12.082;2023-02-15T05:46:03;21.80;;;12.70;;
62037;SDS011;47991;42.974;12.082;2023-02-15T05:48:31;16.90;;;11.20;;
62037;SDS011;47991;42.974;12.082;2023-02-15T05:51:02;20.80;;;12.50;;
62037;SDS011;47991;42.974;12.082;2023-02-15T05:53:35;19.10;;;11.80;;
62037;SDS011;47991;42.974;12.082;2023-02-15T05:56:04;20.10;;;12.10;;
62037;SDS011;47991;42.974;12.082;2023-02-15T05:58:34;21.90;;;14.00;;
62037;SDS011;47991;42.974;12.082;2023-02-15T06:01:09;20.10;;;12.90;;
62037;SDS011;47991;42.974;12.082;2023-02-15T06:03:38;18.50;;;11.50;;
62037;SDS011;47991;42.974;12.082;2023-02-15T06:06:05;18.60;;;11.30;;
62037;SDS011;47991;42.974;12.082;2023-02-15T06:08:33;18.30;;;11.60;;
62037;SDS011;47991;42.974;12.082;2023-02-15T06:11:02;21.00;;;13.50;;
62037;SDS011;47991;42.974;12.082;2023-02-15T06:13:30;19.00;;;11.50;;
62037;SDS011;47991;42.974;12.082;2023-02-15T06:15:57;20.40;;;13.40;;
62037;SDS011;47991;42.974;12.082;2023-02-15T06:18:24;21.50;;;12.20;;
62037;SDS011;47991;42.974;12.082;2023-02-15T06:20:52;20.20;;;12.50;;
62037;SDS011;47991;42.974;12.082;2023-02-15T06:23:19;17.60;;;11.50;;
62037;SDS011;47991;42.974;12.082;2023-02-15T06:25:46;23.50;;;11.90;;
62037;SDS011;47991;42.974;12.082;2023-02-15T06:28:13;20.80;;;12.10;;
62037;SDS011;47991;42.974;12.082;2023-02-15T06:30:40;21.60;;;13.10;;
62037;SDS011;47991;42.974;12.082;2023-02-15T06:33:07;18.50;;;11.70;;
62037;SDS011;47991;42.974;12.082;2023-02-15T06:35:34;18.30;;;11.80;;
62037;SDS011;47991;42.974;12.082;2023-02-15T06:38:01;21.20;;;12.20;;
62037;SDS011;47991;42.974;12.082;2023-02-15T06:40:28;19.90;;;12.80;;
62037;SDS011;47991;42.974;12.082;2023-02-15T06:42:54;19.60;;;11.60;;
62037;SDS011;47991;42.974;12.082;2023-02-15T06:45:21;20.00;;;13.00;;
62037;SDS011;47991;42.974;12.082;2023-02-15T06:47:48;23.80;;;12.50;;
62037;SDS011;47991;42.974;12.082;2023-02-15T06:50:15;19.80;;;13.00;;
62037;SDS011;47991;42.974;12.082;2023-02-15T06:52:42;21.90;;;12.40;;
62037;SDS011;47991;42.974;12.082;2023-02-15T06:55:09;21.40;;;11.80;;
62037;SDS011;47991;42.974;12.082;2023-02-15T06:57:36;24.30;;;12.80;;
62037;SDS011;47991;42.974;12.082;2023-02-15T07:00:04;18.50;;;11.90;;
62037;SDS011;47991;42.974;12.082;2023-02-15T07:02:32;19.90;;;12.40;;
62037;SDS011;47991;42.974;12.082;2023-02-15T07:04:59;21.50;;;12.60;;
62037;SDS011;47991;42.974;12.082;2023-02-15T07:07:26;21.50;;;12.60;;
62037;SDS011;47991;42.974;12.082;2023-02-15T07:09:53;20.20;;;11.70;;
62037;SDS011;47991;42.974;12.082;2023-02-15T07:12:20;22.00;;;12.50;;
62037;SDS011;47991;42.974;12.082;2023-02-15T07:15:07;19.30;;;10.70;;
62037;SDS011;47991;42.974;12.082;2023-02-15T07:17:38;17.20;;;9.70;;
62037;SDS011;47991;42.974;12.082;2023-02-15T07:22:40;14.70;;;9.90;;
62037;SDS011;47991;42.974;12.082;2023-02-15T07:25:08;16.90;;;11.00;;
62037;SDS011;47991;42.974;12.082;2023-02-15T07:27:37;15.20;;;10.20;;
62037;SDS011;47991;42.974;12.082;2023-02-15T07:30:05;17.60;;;10.90;;
62037;SDS011;47991;42.974;12.082;2023-02-15T07:32:35;16.80;;;11.00;;
62037;SDS011;47991;42.974;12.082;2023-02-15T07:35:03;17.50;;;11.10;;
62037;SDS011;47991;42.974;12.082;2023-02-15T07:37:30;16.10;;;9.50;;
62037;SDS011;47991;42.974;12.082;2023-02-15T07:39:57;19.20;;;11.30;;
62037;SDS011;47991;42.974;12.082;2023-02-15T07:42:23;16.20;;;9.20;;
62037;SDS011;47991;42.974;12.082;2023-02-15T07:44:51;15.50;;;10.20;;
62037;SDS011;47991;42.974;12.082;2023-02-15T07:47:19;18.00;;;11.20;;
62037;SDS011;47991;42.974;12.082;2023-02-15T07:49:46;19.70;;;12.00;;
62037;SDS011;47991;42.974;12.082;2023-02-15T07:52:12;18.00;;;10.70;;
62037;SDS011;47991;42.974;12.082;2023-02-15T07:54:39;16.70;;;10.20;;
62037;SDS011;47991;42.974;12.082;2023-02-15T07:57:06;19.30;;;11.70;;
62037;SDS011;47991;42.974;12.082;2023-02-15T07:59:33;18.60;;;11.20;;
62037;SDS011;47991;42.974;12.082;2023-02-15T08:02:00;34.80;;;17.50;;
62037;SDS011;47991;42.974;12.082;2023-02-15T08:04:27;23.50;;;13.00;;
62037;SDS011;47991;42.974;12.082;2023-02-15T08:06:54;20.90;;;12.50;;
62037;SDS011;47991;42.974;12.082;2023-02-15T08:09:21;24.30;;;14.90;;
62037;SDS011;47991;42.974;12.082;2023-02-15T08:11:48;18.80;;;12.00;;
62037;SDS011;47991;42.974;12.082;2023-02-15T08:14:16;19.90;;;11.10;;
62037;SDS011;47991;42.974;12.082;2023-02-15T08:16:49;23.50;;;13.80;;
62037;SDS011;47991;42.974;12.082;2023-02-15T08:19:22;26.50;;;13.80;;
62037;SDS011;47991;42.974;12.082;2023-02-15T08:21:52;103.70;;;38.60;;
62037;SDS011;47991;42.974;12.082;2023-02-15T08:24:21;34.20;;;17.30;;
62037;SDS011;47991;42.974;12.082;2023-02-15T08:26:50;25.60;;;15.80;;
62037;SDS011;47991;42.974;12.082;2023-02-15T08:29:18;27.20;;;15.70;;
62037;SDS011;47991;42.974;12.082;2023-02-15T08:31:49;24.90;;;14.40;;
62037;SDS011;47991;42.974;12.082;2023-02-15T08:34:18;34.00;;;15.70;;
62037;SDS011;47991;42.974;12.082;2023-02-15T08:36:46;73.00;;;36.10;;
62037;SDS011;47991;42.974;12.082;2023-02-15T08:39:13;288.00;;;127.80;;
62037;SDS011;47991;42.974;12.082;2023-02-15T08:41:43;272.90;;;124.20;;
62037;SDS011;47991;42.974;12.082;2023-02-15T08:44:11;263.40;;;110.90;;
62037;SDS011;47991;42.974;12.082;2023-02-15T08:46:40;134.20;;;62.10;;
62037;SDS011;47991;42.974;12.082;2023-02-15T08:49:08;106.80;;;49.80;;
62037;SDS011;47991;42.974;12.082;2023-02-15T08:51:38;83.00;;;44.10;;
62037;SDS011;47991;42.974;12.082;2023-02-15T08:54:07;80.70;;;45.00;;
62037;SDS011;47991;42.974;12.082;2023-02-15T08:56:36;65.70;;;39.10;;
62037;SDS011;47991;42.974;12.082;2023-02-15T08:59:05;179.30;;;91.20;;
62037;SDS011;47991;42.974;12.082;2023-02-15T09:01:33;249.40;;;133.50;;
62037;SDS011;47991;42.974;12.082;2023-02-15T09:04:02;174.30;;;96.10;;
62037;SDS011;47991;42.974;12.082;2023-02-15T09:06:31;187.10;;;104.50;;
62037;SDS011;47991;42.974;12.082;2023-02-15T09:08:59;94.10;;;53.30;;
62037;SDS011;47991;42.974;12.082;2023-02-15T09:11:29;76.40;;;51.90;;
62037;SDS011;47991;42.974;12.082;2023-02-15T09:14:00;60.00;;;37.60;;
62037;SDS011;47991;42.974;12.082;2023-02-15T09:18:58;53.40;;;32.00;;
62037;SDS011;47991;42.974;12.082;2023-02-15T09:21:25;52.70;;;32.10;;
62037;SDS011;47991;42.974;12.082;2023-02-15T09:23:57;52.70;;;30.80;;
62037;SDS011;47991;42.974;12.082;2023-02-15T09:29:18;45.70;;;27.30;;
62037;SDS011;47991;42.974;12.082;2023-02-15T09:31:47;42.00;;;24.80;;
62037;SDS011;47991;42.974;12.082;2023-02-15T09:34:17;39.40;;;25.60;;
62037;SDS011;47991;42.974;12.082;2023-02-15T09:36:46;35.00;;;22.40;;
62037;SDS011;47991;42.974;12.082;2023-02-15T09:39:21;29.70;;;19.70;;
62037;SDS011;47991;42.974;12.082;2023-02-15T10:06:34;17.00;;;9.30;;
62037;SDS011;47991;42.974;12.082;2023-02-15T10:11:49;15.90;;;7.80;;
62037;SDS011;47991;42.974;12.082;2023-02-15T10:19:42;11.00;;;5.60;;
62037;SDS011;47991;42.974;12.082;2023-02-15T10:27:50;11.10;;;5.80;;
62037;SDS011;47991;42.974;12.082;2023-02-15T10:36:21;11.10;;;5.60;;
62037;SDS011;47991;42.974;12.082;2023-02-15T10:58:03;16.00;;;9.20;;
62037;SDS011;47991;42.974;12.082;2023-02-15T11:00:54;26.70;;;12.40;;
62037;SDS011;47991;42.974;12.082;2023-02-15T11:06:18;16.60;;;9.30;;
62037;SDS011;47991;42.974;12.082;2023-02-15T11:08:51;21.70;;;12.20;;
62037;SDS011;47991;42.974;12.082;2023-02-15T11:11:27;19.50;;;10.70;;
62037;SDS011;47991;42.974;12.082;2023-02-15T11:13:59;17.20;;;10.00;;
62037;SDS011;47991;42.974;12.082;2023-02-15T11:21:39;27.60;;;13.60;;
62037;SDS011;47991;42.974;12.082;2023-02-15T11:24:11;21.70;;;13.00;;
62037;SDS011;47991;42.974;12.082;2023-02-15T11:27:02;19.00;;;12.80;;
62037;SDS011;47991;42.974;12.082;2023-02-15T11:29:33;21.20;;;11.40;;
62037;SDS011;47991;42.974;12.082;2023-02-15T11:37:53;17.30;;;10.60;;
62037;SDS011;47991;42.974;12.082;2023-02-15T11:40:46;15.10;;;9.00;;
62037;SDS011;47991;42.974;12.082;2023-02-15T11:43:23;18.40;;;10.00;;
62037;SDS011;47991;42.974;12.082;2023-02-15T11:45:57;15.80;;;8.70;;
62037;SDS011;47991;42.974;12.082;2023-02-15T11:48:24;14.00;;;8.00;;
62037;SDS011;47991;42.974;12.082;2023-02-15T11:50:51;15.40;;;8.70;;
62037;SDS011;47991;42.974;12.082;2023-02-15T11:53:19;13.00;;;7.60;;
62037;SDS011;47991;42.974;12.082;2023-02-15T11:55:51;13.70;;;7.60;;
62037;SDS011;47991;42.974;12.082;2023-02-15T11:58:37;11.50;;;8.00;;
62037;SDS011;47991;42.974;12.082;2023-02-15T12:01:16;11.80;;;7.10;;
62037;SDS011;47991;42.974;12.082;2023-02-15T12:03:47;13.90;;;7.80;;
62037;SDS011;47991;42.974;12.082;2023-02-15T12:06:24;13.20;;;8.40;;
62037;SDS011;47991;42.974;12.082;2023-02-15T12:08:59;10.80;;;6.30;;
62037;SDS011;47991;42.974;12.082;2023-02-15T12:11:45;12.50;;;7.50;;
62037;SDS011;47991;42.974;12.082;2023-02-15T12:14:12;10.00;;;5.90;;
62037;SDS011;47991;42.974;12.082;2023-02-15T12:16:50;12.30;;;6.70;;
62037;SDS011;47991;42.974;12.082;2023-02-15T12:22:17;11.80;;;6.30;;
62037;SDS011;47991;42.974;12.082;2023-02-15T12:24:46;10.10;;;6.30;;
62037;SDS011;47991;42.974;12.082;2023-02-15T12:27:16;12.90;;;6.60;;
62037;SDS011;47991;42.974;12.082;2023-02-15T12:29:46;13.00;;;6.30;;
62037;SDS011;47991;42.974;12.082;2023-02-15T12:32:24;10.40;;;5.80;;
62037;SDS011;47991;42.974;12.082;2023-02-15T12:35:01;10.30;;;6.40;;
62037;SDS011;47991;42.974;12.082;2023-02-15T12:37:37;13.30;;;6.10;;
62037;SDS011;47991;42.974;12.082;2023-02-15T12:40:26;9.80;;;5.50;;
62037;SDS011;47991;42.974;12.082;2023-02-15T12:45:23;11.20;;;5.70;;
62037;SDS011;47991;42.974;12.082;2023-02-15T12:48:38;9.60;;;5.40;;
62037;SDS011;47991;42.974;12.082;2023-02-15T12:50:49;9.50;;;5.60;;
62037;SDS011;47991;42.974;12.082;2023-02-15T12:56:02;10.50;;;6.40;;
62037;SDS011;47991;42.974;12.082;2023-02-15T12:58:31;10.20;;;5.60;;
62037;SDS011;47991;42.974;12.082;2023-02-15T13:03:55;8.10;;;4.30;;
62037;SDS011;47991;42.974;12.082;2023-02-15T13:06:25;8.70;;;4.30;;
62037;SDS011;47991;42.974;12.082;2023-02-15T13:08:55;10.50;;;6.30;;
62037;SDS011;47991;42.974;12.082;2023-02-15T13:11:26;10.90;;;6.60;;
62037;SDS011;47991;42.974;12.082;2023-02-15T13:13:57;12.80;;;7.70;;
62037;SDS011;47991;42.974;12.082;2023-02-15T13:16:31;11.10;;;6.90;;
62037;SDS011;47991;42.974;12.082;2023-02-15T13:19:12;13.10;;;7.00;;
62037;SDS011;47991;42.974;12.082;2023-02-15T13:22:08;13.00;;;8.60;;
62037;SDS011;47991;42.974;12.082;2023-02-15T13:24:41;17.90;;;8.70;;
62037;SDS011;47991;42.974;12.082;2023-02-15T13:27:14;12.10;;;7.00;;
62037;SDS011;47991;42.974;12.082;2023-02-15T13:29:56;13.50;;;7.50;;
62037;SDS011;47991;42.974;12.082;2023-02-15T13:35:00;21.10;;;9.50;;
62037;SDS011;47991;42.974;12.082;2023-02-15T13:37:45;12.40;;;7.60;;
62037;SDS011;47991;42.974;12.082;2023-02-15T13:40:20;13.30;;;6.90;;
62037;SDS011;47991;42.974;12.082;2023-02-15T13:50:56;9.40;;;5.10;;
62037;SDS011;47991;42.974;12.082;2023-02-15T13:53:56;9.00;;;5.30;;
62037;SDS011;47991;42.974;12.082;2023-02-15T13:56:41;10.50;;;4.90;;
62037;SDS011;47991;42.974;12.082;2023-02-15T14:02:42;8.00;;;4.10;;
62037;SDS011;47991;42.974;12.082;2023-02-15T14:10:59;9.20;;;4.60;;
62037;SDS011;47991;42.974;12.082;2023-02-15T14:30:10;25.10;;;9.80;;
62037;SDS011;47991;42.974;12.082;2023-02-15T14:32:45;46.70;;;17.30;;
62037;SDS011;47991;42.974;12.082;2023-02-15T14:35:20;94.70;;;38.40;;
62037;SDS011;47991;42.974;12.082;2023-02-15T14:43:47;8.20;;;3.50;;
62037;SDS011;47991;42.974;12.082;2023-02-15T14:54:55;8.00;;;4.20;;
62037;SDS011;47991;42.974;12.082;2023-02-15T14:57:24;8.40;;;4.30;;
62037;SDS011;47991;42.974;12.082;2023-02-15T14:59:54;10.00;;;4.50;;
62037;SDS011;47991;42.974;12.082;2023-02-15T15:02:29;6.90;;;3.90;;
62037;SDS011;47991;42.974;12.082;2023-02-15T15:05:16;8.90;;;4.20;;
62037;SDS011;47991;42.974;12.082;2023-02-15T15:07:48;9.80;;;4.00;;
62037;SDS011;47991;42.974;12.082;2023-02-15T15:12:51;7.90;;;4.40;;
62037;SDS011;47991;42.974;12.082;2023-02-15T15:15:45;8.10;;;3.70;;
62037;SDS011;47991;42.974;12.082;2023-02-15T15:21:51;7.30;;;3.60;;
62037;SDS011;47991;42.974;12.082;2023-02-15T15:25:03;8.00;;;3.70;;
62037;SDS011;47991;42.974;12.082;2023-02-15T15:35:36;8.10;;;3.00;;
62037;SDS011;47991;42.974;12.082;2023-02-15T15:41:42;7.60;;;3.40;;
62037;SDS011;47991;42.974;12.082;2023-02-15T15:44:40;28.20;;;5.50;;
62037;SDS011;47991;42.974;12.082;2023-02-15T15:47:24;22.40;;;4.70;;
62037;SDS011;47991;42.974;12.082;2023-02-15T15:49:55;11.30;;;3.90;;
62037;SDS011;47991;42.974;12.082;2023-02-15T15:52:24;11.90;;;4.20;;
62037;SDS011;47991;42.974;12.082;2023-02-15T15:54:55;13.70;;;3.90;;
62037;SDS011;47991;42.974;12.082;2023-02-15T15:57:30;23.10;;;5.30;;
62037;SDS011;47991;42.974;12.082;2023-02-15T15:59:58;13.30;;;4.10;;
62037;SDS011;47991;42.974;12.082;2023-02-15T16:02:28;17.20;;;4.10;;
62037;SDS011;47991;42.974;12.082;2023-02-15T16:05:04;8.20;;;3.50;;
62037;SDS011;47991;42.974;12.082;2023-02-15T16:07:33;11.10;;;3.70;;
62037;SDS011;47991;42.974;12.082;2023-02-15T16:10:05;9.30;;;4.20;;
62037;SDS011;47991;42.974;12.082;2023-02-15T16:12:46;8.30;;;3.60;;
62037;SDS011;47991;42.974;12.082;2023-02-15T16:15:20;9.30;;;3.80;;
62037;SDS011;47991;42.974;12.082;2023-02-15T16:17:53;8.00;;;3.80;;
62037;SDS011;47991;42.974;12.082;2023-02-15T16:20:24;10.20;;;4.60;;
62037;SDS011;47991;42.974;12.082;2023-02-15T16:28:58;12.00;;;3.90;;
62037;SDS011;47991;42.974;12.082;2023-02-15T16:31:25;24.80;;;5.10;;
62037;SDS011;47991;42.974;12.082;2023-02-15T16:33:53;8.20;;;4.00;;
62037;SDS011;47991;42.974;12.082;2023-02-15T16:36:22;9.40;;;4.30;;
62037;SDS011;47991;42.974;12.082;2023-02-15T16:41:17;9.70;;;4.10;;
62037;SDS011;47991;42.974;12.082;2023-02-15T16:43:50;13.20;;;4.40;;
62037;SDS011;47991;42.974;12.082;2023-02-15T16:46:32;21.00;;;4.50;;
62037;SDS011;47991;42.974;12.082;2023-02-15T16:49:19;12.40;;;4.40;;
62037;SDS011;47991;42.974;12.082;2023-02-15T16:52:02;15.00;;;5.10;;
62037;SDS011;47991;42.974;12.082;2023-02-15T16:54:35;11.80;;;4.90;;
62037;SDS011;47991;42.974;12.082;2023-02-15T16:57:02;13.30;;;5.30;;
62037;SDS011;47991;42.974;12.082;2023-02-15T16:59:39;14.50;;;5.40;;
62037;SDS011;47991;42.974;12.082;2023-02-15T17:05:10;11.90;;;5.50;;
62037;SDS011;47991;42.974;12.082;2023-02-15T17:07:43;13.90;;;4.80;;
62037;SDS011;47991;42.974;12.082;2023-02-15T17:10:25;16.30;;;6.00;;
62037;SDS011;47991;42.974;12.082;2023-02-15T17:21:12;13.10;;;5.80;;
62037;SDS011;47991;42.974;12.082;2023-02-15T17:23:44;14.70;;;5.50;;
62037;SDS011;47991;42.974;12.082;2023-02-15T17:26:17;12.20;;;5.50;;
62037;SDS011;47991;42.974;12.082;2023-02-15T17:28:50;11.00;;;5.20;;
62037;SDS011;47991;42.974;12.082;2023-02-15T17:31:25;12.00;;;5.50;;
62037;SDS011;47991;42.974;12.082;2023-02-15T17:33:58;10.90;;;4.90;;
62037;SDS011;47991;42.974;12.082;2023-02-15T17:36:27;14.90;;;5.50;;
62037;SDS011;47991;42.974;12.082;2023-02-15T17:41:23;11.20;;;5.10;;
62037;SDS011;47991;42.974;12.082;2023-02-15T17:43:57;13.30;;;5.90;;
62037;SDS011;47991;42.974;12.082;2023-02-15T17:46:24;15.10;;;4.60;;
62037;SDS011;47991;42.974;12.082;2023-02-15T17:48:54;9.20;;;4.60;;
62037;SDS011;47991;42.974;12.082;2023-02-15T17:51:22;8.70;;;4.40;;
62037;SDS011;47991;42.974;12.082;2023-02-15T17:53:49;11.30;;;4.00;;
62037;SDS011;47991;42.974;12.082;2023-02-15T17:56:36;9.60;;;3.80;;
62037;SDS011;47991;42.974;12.082;2023-02-15T17:59:04;9.90;;;4.40;;
62037;SDS011;47991;42.974;12.082;2023-02-15T18:01:34;9.20;;;3.90;;
62037;SDS011;47991;42.974;12.082;2023-02-15T18:04:22;8.60;;;4.00;;
62037;SDS011;47991;42.974;12.082;2023-02-15T18:07:09;8.90;;;4.00;;
62037;SDS011;47991;42.974;12.082;2023-02-15T18:09:58;11.40;;;4.20;;
62037;SDS011;47991;42.974;12.082;2023-02-15T18:12:44;12.80;;;4.40;;
62037;SDS011;47991;42.974;12.082;2023-02-15T18:15:11;11.30;;;4.10;;
62037;SDS011;47991;42.974;12.082;2023-02-15T18:17:44;9.70;;;4.20;;
62037;SDS011;47991;42.974;12.082;2023-02-15T18:22:50;10.30;;;4.90;;
62037;SDS011;47991;42.974;12.082;2023-02-15T18:25:18;10.30;;;4.60;;
62037;SDS011;47991;42.974;12.082;2023-02-15T18:27:47;8.10;;;3.90;;
62037;SDS011;47991;42.974;12.082;2023-02-15T18:30:15;9.30;;;4.40;;
62037;SDS011;47991;42.974;12.082;2023-02-15T18:32:46;8.70;;;4.10;;
62037;SDS011;47991;42.974;12.082;2023-02-15T18:35:20;13.90;;;5.10;;
62037;SDS011;47991;42.974;12.082;2023-02-15T18:37:50;11.20;;;5.00;;
62037;SDS011;47991;42.974;12.082;2023-02-15T18:40:19;9.00;;;4.50;;
62037;SDS011;47991;42.974;12.082;2023-02-15T18:42:50;14.10;;;5.20;;
62037;SDS011;47991;42.974;12.082;2023-02-15T18:45:18;11.40;;;4.80;;